sensor_id;sensor_type;location;lat;lon;timestamp;pressure;altitude;pressure_sealevel;temperature;humidity
53671;BME280;39571;48.612;8.088;2023-04-29T07:13:08;99822.84;;;34.10;38.06
53671;BME280;39571;48.612;8.088;2023-04-29T07:30:17;99864.22;;;24.64;100.00
53671;BME280;39571;48.612;8.088;2023-04-29T07:32:43;99852.56;;;28.95;65.54
53671;BME280;39571;48.612;8.088;2023-04-29T07:35:08;99854.16;;;27.72;53.07
53671;BME280;39571;48.612;8.088;2023-04-29T07:37:33;99857.16;;;25.01;66.35
53671;BME280;39571;48.612;8.088;2023-04-29T07:39:59;99869.53;;;23.73;86.64
53671;BME280;39571;48.612;8.088;2023-04-29T07:42:25;99864.50;;;22.85;100.00
53671;BME280;39571;48.612;8.088;2023-04-29T07:44:50;99875.59;;;22.03;100.00
53671;BME280;39571;48.612;8.088;2023-04-29T07:47:15;99876.50;;;20.93;100.00
53671;BME280;39571;48.612;8.088;2023-04-29T08:22:17;99921.75;;;16.78;100.00
53671;BME280;39571;48.612;8.088;2023-04-29T08:24:42;99912.88;;;18.76;100.00
53671;BME280;39571;48.612;8.088;2023-04-29T08:27:09;99901.47;;;23.61;100.00
53671;BME280;39571;48.612;8.088;2023-04-29T08:29:34;99908.91;;;21.81;100.00
53671;BME280;39571;48.612;8.088;2023-04-29T08:32:00;99920.25;;;20.54;100.00
53671;BME280;39571;48.612;8.088;2023-04-29T08:34:25;99922.44;;;19.37;100.00
53671;BME280;39571;48.612;8.088;2023-04-29T08:36:51;99926.25;;;18.93;100.00
53671;BME280;39571;48.612;8.088;2023-04-29T08:39:16;99917.22;;;18.97;100.00
53671;BME280;39571;48.612;8.088;2023-04-29T09:29:08;99936.22;;;15.89;100.00
53671;BME280;39571;48.612;8.088;2023-04-29T09:31:36;99948.28;;;16.24;100.00
53671;BME280;39571;48.612;8.088;2023-04-29T09:34:02;99939.25;;;16.55;100.00
53671;BME280;39571;48.612;8.088;2023-04-29T09:38:59;99945.41;;;16.81;100.00
53671;BME280;39571;48.612;8.088;2023-04-29T09:41:24;99942.31;;;16.93;100.00
53671;BME280;39571;48.612;8.088;2023-04-29T09:44:04;99935.50;;;17.10;100.00
53671;BME280;39571;48.612;8.088;2023-04-29T09:46:32;99935.34;;;17.15;100.00
53671;BME280;39571;48.612;8.088;2023-04-29T09:48:57;99942.13;;;17.22;100.00
53671;BME280;39571;48.612;8.088;2023-04-29T09:51:23;99936.72;;;17.25;100.00
53671;BME280;39571;48.612;8.088;2023-04-29T09:53:49;99940.84;;;17.09;100.00
53671;BME280;39571;48.612;8.088;2023-04-29T09:56:14;99943.72;;;17.03;100.00
53671;BME280;39571;48.612;8.088;2023-04-29T09:58:39;99934.63;;;16.87;100.00
53671;BME280;39571;48.612;8.088;2023-04-29T10:01:05;99942.06;;;16.76;100.00
53671;BME280;39571;48.612;8.088;2023-04-29T10:03:33;99943.91;;;16.74;100.00
53671;BME280;39571;48.612;8.088;2023-04-29T10:16:48;99928.47;;;16.86;100.00
53671;BME280;39571;48.612;8.088;2023-04-29T10:19:24;99935.56;;;17.09;100.00
53671;BME280;39571;48.612;8.088;2023-04-29T10:21:52;99936.94;;;17.19;100.00
53671;BME280;39571;48.612;8.088;2023-04-29T10:24:19;99932.41;;;17.23;100.00
53671;BME280;39571;48.612;8.088;2023-04-29T10:36:48;99927.34;;;17.16;100.00
53671;BME280;39571;48.612;8.088;2023-04-29T10:39:22;99925.88;;;17.31;100.00
53671;BME280;39571;48.612;8.088;2023-04-29T10:41:51;99921.63;;;17.50;100.00
53671;BME280;39571;48.612;8.088;2023-04-29T10:44:17;99922.66;;;17.70;100.00
53671;BME280;39571;48.612;8.088;2023-04-29T10:46:43;99925.84;;;17.56;100.00
53671;BME280;39571;48.612;8.088;2023-04-29T11:23:04;99901.16;;;17.32;100.00
53671;BME280;39571;48.612;8.088;2023-04-29T11:25:29;99900.34;;;17.53;100.00
53671;BME280;39571;48.612;8.088;2023-04-29T11:27:55;99901.59;;;17.66;100.00
53671;BME280;39571;48.612;8.088;2023-04-29T11:30:23;99895.56;;;17.85;100.00
53671;BME280;39571;48.612;8.088;2023-04-29T11:32:49;99900.59;;;17.91;100.00
53671;BME280;39571;48.612;8.088;2023-04-29T11:35:17;99897.19;;;17.89;100.00
53671;BME280;39571;48.612;8.088;2023-04-29T11:37:44;99895.31;;;17.91;100.00
53671;BME280;39571;48.612;8.088;2023-04-29T11:40:10;99893.81;;;18.05;100.00
53671;BME280;39571;48.612;8.088;2023-04-29T11:42:47;99899.47;;;18.18;100.00
53671;BME280;39571;48.612;8.088;2023-04-29T11:45:13;99897.63;;;18.20;100.00
53671;BME280;39571;48.612;8.088;2023-04-29T11:47:43;99895.13;;;18.37;100.00
53671;BME280;39571;48.612;8.088;2023-04-29T11:50:13;99887.44;;;18.51;100.00
53671;BME280;39571;48.612;8.088;2023-04-29T11:52:40;99896.84;;;18.58;100.00
53671;BME280;39571;48.612;8.088;2023-04-29T11:55:10;99891.16;;;18.47;100.00
53671;BME280;39571;48.612;8.088;2023-04-29T11:57:36;99898.56;;;18.39;100.00
53671;BME280;39571;48.612;8.088;2023-04-29T12:00:02;99900.16;;;18.43;100.00
53671;BME280;39571;48.612;8.088;2023-04-29T12:02:32;99897.81;;;18.57;100.00
53671;BME280;39571;48.612;8.088;2023-04-29T12:04:58;99896.06;;;18.56;100.00
53671;BME280;39571;48.612;8.088;2023-04-29T12:07:25;99891.91;;;18.51;100.00
53671;BME280;39571;48.612;8.088;2023-04-29T12:09:50;99899.63;;;18.55;100.00
